Time;durP1;ratioP1;P1;durP2;ratioP2;P2;SDS_P1;SDS_P2;PMS_P1;PMS_P2;Temp;Humidity;BMP_temperature;BMP_pressure;BME280_temperature;BME280_humidity;BME280_pressure;Samples;Min_cycle;Max_cycle;Signal;HPM_P1;HPM_P2
2020/12/05 00:01:41;;;;;;;14.27;6.23;;;;;;;2.96;100.00;98681.66;5007053;28;20034;-68
2020/12/05 00:04:07;;;;;;;17.00;7.13;;;;;;;2.96;100.00;98666.16;5004742;28;20034;-66
2020/12/05 00:06:32;;;;;;;19.03;7.30;;;;;;;3.01;100.00;98648.06;5036665;28;20404;-67
2020/12/05 00:08:58;;;;;;;19.20;6.47;;;;;;;3.01;99.60;98648.06;5036196;28;20028;-68
2020/12/05 00:11:29;;;;;;;19.10;6.60;;;;;;;2.93;99.90;98653.25;5004902;28;20026;-64
2020/12/05 00:13:55;;;;;;;17.17;7.00;;;;;;;2.89;100.00;98644.66;5002464;28;20034;-67
2020/12/05 00:16:20;;;;;;;17.83;6.43;;;;;;;2.85;100.00;98637.78;5002197;28;20663;-67
2020/12/05 00:18:48;;;;;;;19.13;6.50;;;;;;;2.86;99.90;98644.66;5007204;28;20030;-66
2020/12/05 00:21:18;;;;;;;19.43;7.27;;;;;;;2.82;100.00;98648.09;5008317;28;20030;-67
2020/12/05 00:23:43;;;;;;;19.57;7.17;;;;;;;2.83;100.00;98649.81;5008046;28;20283;-66
2020/12/05 00:26:16;;;;;;;19.53;6.93;;;;;;;2.81;100.00;98646.41;5006866;28;20954;-67
2020/12/05 00:28:42;;;;;;;16.42;7.05;;;;;;;2.77;100.00;98639.50;5007171;28;20045;-66
2020/12/05 00:31:08;;;;;;;18.87;7.07;;;;;;;2.74;100.00;98639.50;5007577;28;20500;-68
2020/12/05 00:33:34;;;;;;;20.90;6.97;;;;;;;2.69;100.00;98622.31;5006994;28;20562;-67
2020/12/05 00:35:59;;;;;;;16.57;6.43;;;;;;;2.63;100.00;98620.59;5008074;28;20312;-68
2020/12/05 00:38:25;;;;;;;18.63;7.23;;;;;;;2.60;100.00;98644.69;5008377;28;20026;-67
2020/12/05 00:40:51;;;;;;;16.37;6.33;;;;;;;2.62;100.00;98655.00;5003913;28;20025;-68
2020/12/05 00:43:16;;;;;;;16.37;5.83;;;;;;;2.71;100.00;98685.97;5009149;28;20030;-67
2020/12/05 00:45:42;;;;;;;14.87;6.30;;;;;;;2.73;100.00;98688.53;5006621;28;20288;-67
2020/12/05 00:48:07;;;;;;;20.97;6.90;;;;;;;2.70;100.00;98694.56;5007440;28;20041;-66
2020/12/05 00:50:33;;;;;;;20.00;7.80;;;;;;;2.59;100.00;98701.44;5008025;28;20576;-68
2020/12/05 00:52:58;;;;;;;17.50;7.23;;;;;;;2.53;100.00;98688.50;5007188;28;20026;-67
2020/12/05 00:55:23;;;;;;;19.87;7.07;;;;;;;2.54;100.00;98692.81;5002829;28;20080;-65
2020/12/05 00:57:49;;;;;;;19.50;7.90;;;;;;;2.50;100.00;98696.25;5007435;28;20053;-68
2020/12/05 01:00:16;;;;;;;20.63;7.93;;;;;;;2.43;100.00;98705.72;5008310;28;20028;-68
2020/12/05 01:02:41;;;;;;;21.70;7.40;;;;;;;2.43;100.00;98704.88;5005926;28;20113;-67
2020/12/05 01:05:07;;;;;;;16.63;6.63;;;;;;;2.42;100.00;98692.78;5006951;28;20291;-66
2020/12/05 01:07:32;;;;;;;18.80;6.93;;;;;;;2.47;100.00;98702.28;5010623;28;20476;-67
2020/12/05 01:09:58;;;;;;;16.27;6.33;;;;;;;2.47;100.00;98685.94;5006855;28;20022;-67
2020/12/05 01:12:26;;;;;;;15.63;6.90;;;;;;;2.46;100.00;98679.06;5007453;28;20503;-67
2020/12/05 01:14:52;;;;;;;18.10;6.90;;;;;;;2.46;100.00;98690.25;5008570;28;20030;-66
2020/12/05 01:17:23;;;;;;;16.50;7.17;;;;;;;2.41;100.00;98686.78;5006499;28;20358;-68
2020/12/05 01:19:48;;;;;;;20.53;7.57;;;;;;;2.41;100.00;98688.50;5006780;28;20041;-66
2020/12/05 01:22:13;;;;;;;19.10;7.53;;;;;;;2.40;100.00;98684.19;5010805;28;20288;-67
2020/12/05 01:24:39;;;;;;;15.20;6.20;;;;;;;2.43;100.00;98689.38;5006962;28;20133;-67
2020/12/05 01:27:04;;;;;;;19.77;6.60;;;;;;;2.39;100.00;98682.47;5007978;28;20034;-66
2020/12/05 01:29:29;;;;;;;19.53;7.47;;;;;;;2.33;100.00;98668.72;5004359;28;20032;-68
2020/12/05 01:31:55;;;;;;;17.83;7.30;;;;;;;2.33;100.00;98678.19;5006873;28;20064;-66
2020/12/05 01:34:20;;;;;;;16.43;6.97;;;;;;;2.30;100.00;98693.63;5006337;28;20774;-65
2020/12/05 01:36:46;;;;;;;19.27;7.63;;;;;;;2.31;100.00;98701.41;5004011;28;20094;-66
2020/12/05 01:39:12;;;;;;;19.63;7.50;;;;;;;2.27;100.00;98699.66;5013283;28;20033;-67
2020/12/05 01:41:37;;;;;;;17.47;6.80;;;;;;;2.30;100.00;98712.56;5003169;28;20572;-68
2020/12/05 01:44:03;;;;;;;19.53;8.33;;;;;;;2.31;100.00;98716.00;5008997;28;20286;-67
2020/12/05 01:46:37;;;;;;;20.90;7.80;;;;;;;2.28;100.00;98722.00;5005366;28;20061;-68
2020/12/05 01:49:03;;;;;;;21.07;7.63;;;;;;;2.24;100.00;98725.44;5006468;28;20065;-68
2020/12/05 01:51:30;;;;;;;19.40;6.83;;;;;;;2.24;100.00;98719.41;5005240;28;20312;-67
2020/12/05 01:53:56;;;;;;;16.80;6.60;;;;;;;2.31;100.00;98706.56;5008744;28;20970;-67
2020/12/05 01:56:24;;;;;;;18.80;7.43;;;;;;;2.29;100.00;98705.66;5004675;28;20371;-65
2020/12/05 01:58:49;;;;;;;20.33;7.17;;;;;;;2.28;100.00;98706.53;5005694;28;20033;-68
2020/12/05 02:01:16;;;;;;;20.97;7.50;;;;;;;2.25;100.00;98691.06;5005917;28;20810;-66
2020/12/05 02:03:42;;;;;;;22.73;7.47;;;;;;;2.23;100.00;98679.88;5009006;28;20053;-66
2020/12/05 02:06:20;;;;;;;19.67;6.93;;;;;;;2.23;100.00;98684.19;5004912;28;20319;-67
2020/12/05 02:08:45;;;;;;;17.60;6.63;;;;;;;2.21;100.00;98689.34;5008586;28;20018;-66
2020/12/05 02:11:15;;;;;;;21.37;7.10;;;;;;;2.16;100.00;98685.88;5001745;28;20284;-66
2020/12/05 02:13:46;;;;;;;20.30;8.13;;;;;;;2.10;100.00;98665.25;5004113;28;20109;-67
2020/12/05 02:16:12;;;;;;;19.10;7.50;;;;;;;2.18;100.00;98678.13;5008995;28;20284;-66
2020/12/05 02:18:38;;;;;;;21.20;6.40;;;;;;;2.12;100.00;98663.53;5004911;28;20298;-66
2020/12/05 02:21:05;;;;;;;19.47;7.40;;;;;;;2.18;100.00;98673.88;5006183;28;20300;-66
2020/12/05 02:23:31;;;;;;;18.10;6.30;;;;;;;2.16;100.00;98672.97;5007963;28;20842;-66
2020/12/05 02:26:03;;;;;;;18.07;7.33;;;;;;;2.13;100.00;98675.56;5003964;28;20288;-66
2020/12/05 02:28:29;;;;;;;20.10;7.90;;;;;;;2.07;100.00;98674.72;5005380;28;20285;-66
2020/12/05 02:30:55;;;;;;;16.37;6.70;;;;;;;2.03;100.00;98664.38;5005167;28;20283;-66
2020/12/05 02:33:20;;;;;;;17.53;7.57;;;;;;;2.07;100.00;98678.13;5005505;28;20284;-67
2020/12/05 02:35:46;;;;;;;22.23;7.70;;;;;;;2.04;100.00;98675.53;5003609;28;20165;-64
2020/12/05 02:38:25;;;;;;;19.83;7.43;;;;;;;2.09;100.00;98676.41;5002534;28;20029;-66
2020/12/05 02:40:51;;;;;;;19.17;7.87;;;;;;;2.04;100.00;98672.97;5002214;28;20041;-67
2020/12/05 02:43:17;;;;;;;26.43;8.43;;;;;;;2.00;100.00;98684.13;5009156;28;20334;-67
2020/12/05 02:45:43;;;;;;;21.10;7.97;;;;;;;1.99;100.00;98684.97;5005325;28;20416;-65
2020/12/05 02:48:09;;;;;;;22.20;7.73;;;;;;;1.99;100.00;98682.41;5004296;28;20807;-65
2020/12/05 02:50:35;;;;;;;17.47;7.33;;;;;;;1.98;100.00;98685.84;5006665;28;20320;-67
2020/12/05 02:53:01;;;;;;;21.67;8.07;;;;;;;1.96;100.00;98683.25;5004433;28;20821;-66
2020/12/05 02:55:26;;;;;;;18.90;7.80;;;;;;;1.98;100.00;98685.84;5021919;28;20121;-67
2020/12/05 02:57:51;;;;;;;19.03;7.70;;;;;;;2.01;100.00;98691.00;5013300;28;20025;-65
2020/12/05 03:00:17;;;;;;;20.27;6.87;;;;;;;2.02;100.00;98682.41;5004389;28;20026;-66
2020/12/05 03:02:43;;;;;;;21.30;7.60;;;;;;;1.98;100.00;98678.09;5017868;28;20121;-65
2020/12/05 03:05:08;;;;;;;18.97;7.23;;;;;;;1.97;100.00;98673.81;5020127;28;20037;-67
2020/12/05 03:07:34;;;;;;;20.07;7.77;;;;;;;1.93;100.00;98672.06;5019996;28;20033;-66
2020/12/05 03:09:59;;;;;;;23.47;7.73;;;;;;;1.89;100.00;98668.63;5021936;28;20587;-65
2020/12/05 03:12:25;;;;;;;23.10;8.27;;;;;;;1.88;100.00;98668.63;5008661;28;20045;-66
2020/12/05 03:14:50;;;;;;;19.50;8.03;;;;;;;1.87;100.00;98667.75;5014332;28;20450;-67
2020/12/05 03:17:16;;;;;;;17.43;6.97;;;;;;;1.83;100.00;98665.19;5022473;28;20033;-65
2020/12/05 03:19:41;;;;;;;23.87;7.83;;;;;;;1.78;100.00;98662.56;5018680;28;20053;-66
2020/12/05 03:22:07;;;;;;;23.30;8.23;;;;;;;1.77;100.00;98663.44;5024393;28;20068;-65
2020/12/05 03:24:32;;;;;;;24.30;9.00;;;;;;;1.77;100.00;98661.72;5010446;28;20064;-66
2020/12/05 03:26:58;;;;;;;18.83;7.67;;;;;;;1.76;100.00;98660.00;5002960;28;20040;-67
2020/12/05 03:29:24;;;;;;;24.93;8.23;;;;;;;1.74;100.00;98661.72;5004026;28;20034;-65
2020/12/05 03:31:54;;;;;;;21.03;8.03;;;;;;;1.75;100.00;98673.72;5009409;28;20029;-65
2020/12/05 03:34:20;;;;;;;24.87;8.83;;;;;;;1.73;100.00;98680.59;5011883;28;20033;-67
2020/12/05 03:36:45;;;;;;;19.93;7.20;;;;;;;1.74;100.00;98692.63;5021324;28;20657;-67
2020/12/05 03:39:11;;;;;;;23.83;8.67;;;;;;;1.74;100.00;98687.47;5016559;28;20037;-65
2020/12/05 03:41:37;;;;;;;23.90;7.53;;;;;;;1.79;100.00;98694.34;5009232;28;20104;-65
2020/12/05 03:44:03;;;;;;;20.90;8.10;;;;;;;1.77;100.00;98702.06;5009065;28;20387;-67
2020/12/05 03:46:29;;;;;;;20.60;7.90;;;;;;;1.74;100.00;98690.06;5016027;28;20381;-66
2020/12/05 03:48:54;;;;;;;22.53;8.97;;;;;;;1.71;100.00;98692.63;5010835;28;20293;-68
2020/12/05 03:51:19;;;;;;;21.37;8.97;;;;;;;1.68;100.00;98687.44;5012802;28;20031;-66
2020/12/05 03:53:45;;;;;;;20.83;7.60;;;;;;;1.67;100.00;98690.88;5012619;28;20037;-66
2020/12/05 03:56:11;;;;;;;23.27;8.27;;;;;;;1.69;100.00;98698.59;5011816;28;20018;-65
2020/12/05 03:58:38;;;;;;;24.97;8.83;;;;;;;1.68;100.00;98699.44;5014430;28;20606;-66
2020/12/05 04:01:03;;;;;;;25.97;9.33;;;;;;;1.68;100.00;98713.19;5009992;28;20283;-65
2020/12/05 04:03:29;;;;;;;20.50;8.00;;;;;;;1.70;100.00;98716.66;5019475;28;20299;-65
2020/12/05 04:05:54;;;;;;;27.93;8.87;;;;;;;1.68;100.00;98697.72;5010450;28;20543;-65
2020/12/05 04:08:20;;;;;;;20.97;8.40;;;;;;;1.68;100.00;98710.63;5010915;28;20029;-66
2020/12/05 04:10:45;;;;;;;22.23;7.87;;;;;;;1.68;100.00;98708.03;5003913;28;20515;-67
2020/12/05 04:13:11;;;;;;;21.77;8.30;;;;;;;1.70;100.00;98721.81;5011349;28;20518;-67
2020/12/05 04:15:36;;;;;;;22.23;8.90;;;;;;;1.72;100.00;98719.25;5012900;28;20598;-67
2020/12/05 04:18:02;;;;;;;21.50;8.27;;;;;;;1.71;100.00;98720.97;5009371;28;20057;-66
2020/12/05 04:20:27;;;;;;;25.40;8.53;;;;;;;1.73;100.00;98724.41;5011491;28;20038;-68
2020/12/05 04:22:54;;;;;;;25.23;9.07;;;;;;;1.73;100.00;98728.69;5002493;28;20037;-66
2020/12/05 04:25:24;;;;;;;25.07;9.37;;;;;;;1.70;100.00;98726.97;5021653;28;20040;-65
2020/12/05 04:27:51;;;;;;;22.77;8.90;;;;;;;1.71;100.00;98736.41;5014232;28;20280;-66
2020/12/05 04:30:16;;;;;;;23.47;8.53;;;;;;;1.71;100.00;98732.97;5022165;28;20316;-67
2020/12/05 04:32:42;;;;;;;23.43;8.70;;;;;;;1.72;100.00;98740.72;5003307;28;20362;-65
2020/12/05 04:35:08;;;;;;;23.20;9.20;;;;;;;1.71;100.00;98754.44;5008992;28;20116;-67
2020/12/05 04:37:34;;;;;;;23.73;8.47;;;;;;;1.69;100.00;98750.09;5005526;28;20412;-66
2020/12/05 04:39:59;;;;;;;24.33;9.20;;;;;;;1.70;100.00;98762.16;5016455;28;20288;-68
2020/12/05 04:42:24;;;;;;;20.77;7.60;;;;;;;1.67;100.00;98760.41;5009343;28;20038;-65
2020/12/05 04:44:50;;;;;;;21.53;8.37;;;;;;;1.67;100.00;98765.56;5006398;28;20797;-65
2020/12/05 04:47:16;;;;;;;25.90;8.93;;;;;;;1.63;100.00;98771.56;5008210;28;20029;-66
2020/12/05 04:49:43;;;;;;;22.90;9.90;;;;;;;1.64;100.00;98775.84;5013696;28;20373;-66
2020/12/05 04:52:25;;;;;;;19.83;8.37;;;;;;;1.63;100.00;98770.69;5005695;28;20310;-67
2020/12/05 04:54:56;;;;;;;27.70;11.40;;;;;;;1.61;100.00;98768.13;5015149;28;21081;-66
2020/12/05 04:57:24;;;;;;;24.97;9.33;;;;;;;1.57;100.00;98771.50;5011120;28;20291;-64
2020/12/05 04:59:50;;;;;;;24.40;9.43;;;;;;;1.56;100.00;98780.09;5010938;28;20284;-64
2020/12/05 05:02:18;;;;;;;22.43;8.40;;;;;;;1.54;100.00;98775.78;5009181;28;20298;-67
2020/12/05 05:04:44;;;;;;;25.93;9.43;;;;;;;1.52;100.00;98773.22;5014309;28;20399;-66
2020/12/05 05:07:10;;;;;;;20.80;8.47;;;;;;;1.50;100.00;98780.06;5020653;28;21076;-66
2020/12/05 05:09:44;;;;;;;26.67;9.53;;;;;;;1.45;100.00;98762.03;5018195;28;20116;-66
2020/12/05 05:12:10;;;;;;;19.93;7.63;;;;;;;1.48;100.00;98766.31;5008399;28;20030;-65
2020/12/05 05:14:35;;;;;;;31.23;11.80;;;;;;;1.44;100.00;98764.56;5016872;28;20296;-65
2020/12/05 05:17:07;;;;;;;28.93;10.70;;;;;;;1.45;100.00;98764.59;5007584;28;20041;-68
2020/12/05 05:19:36;;;;;;;24.88;8.93;;;;;;;1.42;100.00;98767.13;5008075;28;20529;-65
2020/12/05 05:22:02;;;;;;;29.13;9.67;;;;;;;1.44;100.00;98772.28;5013156;28;20026;-65
2020/12/05 05:24:28;;;;;;;29.57;9.67;;;;;;;1.38;100.00;98764.53;5015532;28;20368;-65
2020/12/05 05:27:00;;;;;;;25.63;9.70;;;;;;;1.37;100.00;98767.97;5009393;28;20281;-66
2020/12/05 05:29:34;;;;;;;24.80;9.63;;;;;;;1.35;100.00;98764.53;5019763;28;20359;-64
2020/12/05 05:32:12;;;;;;;31.10;11.03;;;;;;;1.34;100.00;98757.66;5018252;28;20319;-66
2020/12/05 05:34:38;;;;;;;28.30;10.73;;;;;;;1.32;100.00;98749.03;5009577;28;20990;-65
2020/12/05 05:37:19;;;;;;;29.83;10.60;;;;;;;1.32;100.00;98749.91;5006760;28;20281;-66
2020/12/05 05:39:47;;;;;;;28.77;9.87;;;;;;;1.32;100.00;98743.88;5021304;28;20204;-66
2020/12/05 05:42:25;;;;;;;28.67;10.50;;;;;;;1.25;100.00;98732.69;5011491;28;20844;-67
2020/12/05 05:44:51;;;;;;;25.97;10.53;;;;;;;1.24;100.00;98719.84;5005677;28;20840;-64
2020/12/05 05:47:20;;;;;;;31.07;10.80;;;;;;;1.23;100.00;98728.41;5016719;28;20296;-65
2020/12/05 05:49:45;;;;;;;31.83;10.60;;;;;;;1.22;100.00;98731.84;5024372;28;20101;-67
2020/12/05 05:52:17;;;;;;;30.20;10.77;;;;;;;1.15;100.00;98734.34;5011394;28;20654;-65
2020/12/05 05:54:42;;;;;;;30.40;10.27;;;;;;;1.12;100.00;98742.06;5010554;28;20031;-65
2020/12/05 05:57:18;;;;;;;32.30;11.80;;;;;;;1.08;100.00;98730.00;5016421;28;21016;-65
2020/12/05 05:59:45;;;;;;;34.33;11.47;;;;;;;1.07;100.00;98746.28;5009469;28;20038;-65
2020/12/05 06:02:15;;;;;;;31.33;10.47;;;;;;;1.07;100.00;98751.44;5019980;28;20379;-65
2020/12/05 06:04:42;;;;;;;35.87;11.83;;;;;;;1.06;100.00;98736.84;5015047;28;20277;-66
2020/12/05 06:07:12;;;;;;;29.87;11.20;;;;;;;1.05;100.00;98740.28;5021510;28;20896;-65
2020/12/05 06:09:43;;;;;;;30.23;10.53;;;;;;;1.04;100.00;98733.41;5018443;28;20333;-66
2020/12/05 06:12:12;;;;;;;31.73;11.07;;;;;;;1.04;100.00;98743.69;5015559;28;20652;-64
2020/12/05 06:14:41;;;;;;;35.57;11.70;;;;;;;1.04;100.00;98743.69;5013541;28;20727;-66
2020/12/05 06:17:08;;;;;;;40.13;11.57;;;;;;;1.06;100.00;98747.13;5005082;28;20400;-67
2020/12/05 06:19:34;;;;;;;39.23;12.50;;;;;;;1.08;100.00;98736.84;5007501;28;20284;-66
2020/12/05 06:21:59;;;;;;;30.80;10.90;;;;;;;1.10;100.00;98738.63;5019050;28;20778;-66
2020/12/05 06:24:37;;;;;;;35.07;11.13;;;;;;;1.16;100.00;98748.94;5015079;28;20033;-65
2020/12/05 06:27:06;;;;;;;38.53;13.23;;;;;;;1.18;100.00;98761.81;5007952;28;20026;-66
2020/12/05 06:29:32;;;;;;;31.53;10.93;;;;;;;1.21;100.00;98766.97;5019116;28;20966;-68
2020/12/05 06:31:57;;;;;;;33.47;10.77;;;;;;;1.25;100.00;98767.88;5014430;28;20280;-66
2020/12/05 06:34:39;;;;;;;31.10;11.00;;;;;;;1.31;100.00;98773.06;5014004;28;20354;-67
2020/12/05 06:37:06;;;;;;;30.92;11.65;;;;;;;1.34;100.00;98767.94;5025312;28;20048;-66
2020/12/05 06:39:31;;;;;;;28.63;11.13;;;;;;;1.34;100.00;98768.81;5007851;28;20700;-66
2020/12/05 06:41:57;;;;;;;30.20;10.73;;;;;;;1.34;100.00;98765.38;5005745;28;20309;-66
2020/12/05 06:44:35;;;;;;;34.80;11.23;;;;;;;1.35;100.00;98769.69;5010538;28;20069;-66
2020/12/05 06:47:03;;;;;;;29.30;10.67;;;;;;;1.36;100.00;98773.97;5008795;28;20079;-65
2020/12/05 06:49:38;;;;;;;34.30;10.63;;;;;;;1.38;100.00;98769.69;5025262;28;20284;-66
2020/12/05 06:52:21;;;;;;;27.97;10.90;;;;;;;1.39;100.00;98779.13;5013859;28;20280;-66
2020/12/05 06:55:09;;;;;;;26.80;9.87;;;;;;;1.40;100.00;98793.72;5002449;28;20477;-66
2020/12/05 06:57:36;;;;;;;31.17;11.40;;;;;;;1.40;100.00;98793.72;5006521;28;20296;-68
2020/12/05 07:00:22;;;;;;;34.13;11.40;;;;;;;1.42;100.00;98803.19;5007008;28;20257;-68
2020/12/05 07:03:10;;;;;;;30.13;10.37;;;;;;;1.45;100.00;98817.78;5004704;28;20367;-66
2020/12/05 07:05:45;;;;;;;26.70;10.47;;;;;;;1.46;100.00;98825.53;5005851;28;20286;-67
2020/12/05 07:08:22;;;;;;;33.67;11.73;;;;;;;1.46;100.00;98853.00;5006432;28;20647;-67
2020/12/05 07:10:55;;;;;;;26.97;10.60;;;;;;;1.47;100.00;98862.47;5006614;28;20269;-66
2020/12/05 07:13:20;;;;;;;;;;;;;;;1.45;100.00;98877.91;5006178;28;20288;-67
2020/12/05 07:15:46;;;;;;;35.67;10.47;;;;;;;1.45;100.00;98898.50;5008466;28;19918;-66
2020/12/05 07:18:26;;;;;;;30.57;11.03;;;;;;;1.49;100.00;98901.94;5007727;28;20033;-65
2020/12/05 07:20:53;;;;;;;30.93;11.30;;;;;;;1.50;100.00;98913.13;5006715;28;20260;-66
2020/12/05 07:23:19;;;;;;;28.40;10.83;;;;;;;1.47;100.00;98908.81;5004348;28;20346;-67
2020/12/05 07:25:44;;;;;;;30.13;10.40;;;;;;;1.51;100.00;98920.84;5005353;28;20288;-66
2020/12/05 07:28:09;;;;;;;33.07;11.90;;;;;;;1.49;100.00;98919.97;5004755;28;20037;-67
2020/12/05 07:30:35;;;;;;;32.07;10.93;;;;;;;1.52;100.00;98927.72;5006589;28;20638;-66
2020/12/05 07:33:00;;;;;;;31.10;10.27;;;;;;;1.53;100.00;98937.16;5006350;28;20063;-64
2020/12/05 07:35:26;;;;;;;33.17;11.57;;;;;;;1.52;100.00;98932.88;5010046;28;20803;-67
2020/12/05 07:37:51;;;;;;;34.33;11.93;;;;;;;1.55;100.00;98934.59;5007124;28;20736;-66
2020/12/05 07:40:27;;;;;;;28.83;9.87;;;;;;;1.58;100.00;98930.38;5006581;28;20022;-66
2020/12/05 07:42:53;;;;;;;29.07;11.47;;;;;;;1.58;100.00;98917.50;5009579;28;20028;-65
2020/12/05 07:45:18;;;;;;;33.83;10.77;;;;;;;1.63;100.00;98922.66;5004942;28;20284;-65
2020/12/05 07:47:44;;;;;;;38.13;11.03;;;;;;;1.64;100.00;98927.81;5006248;28;20712;-66
2020/12/05 07:50:10;;;;;;;36.13;11.43;;;;;;;1.64;100.00;98922.69;5005132;28;20399;-65
2020/12/05 07:52:41;;;;;;;41.73;12.47;;;;;;;1.64;100.00;98912.38;5003744;28;20041;-67
2020/12/05 07:55:09;;;;;;;32.03;11.03;;;;;;;1.68;100.00;98919.25;5002621;28;20288;-68
2020/12/05 07:57:36;;;;;;;30.17;10.17;;;;;;;1.70;100.00;98920.16;5007564;28;20281;-67
2020/12/05 08:00:08;;;;;;;36.77;11.40;;;;;;;1.71;100.00;98919.31;5009331;28;20298;-66
2020/12/05 08:02:33;;;;;;;29.73;11.57;;;;;;;1.76;100.00;98922.78;5006083;28;20787;-66
2020/12/05 08:05:07;;;;;;;30.83;10.73;;;;;;;1.78;100.00;98912.47;5007348;28;20260;-68
2020/12/05 08:07:42;;;;;;;28.63;9.53;;;;;;;1.81;100.00;98937.41;5003319;28;20041;-67
2020/12/05 08:10:15;;;;;;;28.00;9.57;;;;;;;1.85;100.00;98940.03;5007332;28;20268;-67
2020/12/05 08:12:44;;;;;;;31.57;10.67;;;;;;;1.87;100.00;98951.19;5004169;28;20519;-65
2020/12/05 08:15:18;;;;;;;29.90;10.20;;;;;;;1.86;100.00;98964.06;5006926;28;20284;-67
2020/12/05 08:17:45;;;;;;;27.73;9.37;;;;;;;1.92;100.00;98979.56;5005090;28;20276;-67
2020/12/05 08:20:11;;;;;;;37.27;11.47;;;;;;;1.98;100.00;98979.63;5008601;28;20358;-65
2020/12/05 08:22:37;;;;;;;29.37;10.27;;;;;;;2.01;100.00;98988.25;5002970;28;20288;-67
2020/12/05 08:25:04;;;;;;;28.70;10.67;;;;;;;2.07;100.00;98995.19;5005441;28;20432;-65
2020/12/05 08:27:30;;;;;;;34.33;10.40;;;;;;;2.13;100.00;99000.38;5008315;28;20038;-67
2020/12/05 08:29:57;;;;;;;29.33;10.17;;;;;;;2.14;100.00;99011.53;5006768;28;20273;-65
2020/12/05 08:32:24;;;;;;;32.33;11.57;;;;;;;2.23;100.00;99027.94;5004408;28;20115;-66
2020/12/05 08:34:51;;;;;;;29.47;10.80;;;;;;;2.25;100.00;99023.66;5006142;28;20268;-68
2020/12/05 08:37:24;;;;;;;30.27;11.93;;;;;;;2.28;100.00;99021.09;5005797;28;20289;-66
2020/12/05 08:39:51;;;;;;;29.07;9.97;;;;;;;2.34;100.00;99025.47;5010542;28;20351;-66
2020/12/05 08:42:17;;;;;;;34.70;11.17;;;;;;;2.40;100.00;99034.94;5007574;28;20714;-66
2020/12/05 08:44:43;;;;;;;27.70;10.83;;;;;;;2.45;100.00;99043.59;5009007;28;20292;-67
2020/12/05 08:47:08;;;;;;;27.73;9.47;;;;;;;2.47;100.00;99052.19;5007790;28;20485;-66
2020/12/05 08:49:37;;;;;;;32.77;11.10;;;;;;;2.52;100.00;99058.25;5009039;28;20022;-67
2020/12/05 08:52:03;;;;;;;31.63;10.67;;;;;;;2.54;100.00;99043.63;5024025;28;20053;-67
2020/12/05 08:54:29;;;;;;;28.73;10.23;;;;;;;2.53;100.00;99058.25;5001836;28;20327;-67
2020/12/05 08:57:23;;;;;;;30.53;10.97;;;;;;;2.60;100.00;99064.31;5007436;28;20312;-65
2020/12/05 08:59:59;;;;;;;31.17;10.10;;;;;;;2.68;100.00;99066.97;4994557;28;20280;-67
2020/12/05 09:02:34;;;;;;;23.57;9.23;;;;;;;2.69;100.00;99066.97;5008433;28;20861;-65
2020/12/05 09:05:01;;;;;;;27.57;9.80;;;;;;;2.68;100.00;99066.97;5009489;28;20756;-66
2020/12/05 09:07:26;;;;;;;30.33;9.70;;;;;;;2.74;100.00;99073.00;5006665;28;20299;-66
2020/12/05 09:09:51;;;;;;;28.10;9.60;;;;;;;2.79;100.00;99076.50;5005385;28;20276;-66
2020/12/05 09:12:18;;;;;;;31.17;11.13;;;;;;;2.85;100.00;99089.44;5006805;28;20029;-66
2020/12/05 09:14:47;;;;;;;30.43;10.43;;;;;;;2.89;100.00;99092.88;5008839;28;20034;-67
2020/12/05 09:17:27;;;;;;;27.27;9.23;;;;;;;2.89;100.00;99083.41;5002526;28;20293;-66
2020/12/05 09:20:10;;;;;;;31.70;10.67;;;;;;;2.95;100.00;99090.34;5008710;28;20388;-68
2020/12/05 09:22:35;;;;;;;30.92;10.55;;;;;;;3.01;100.00;99098.13;5005011;28;20786;-68
2020/12/05 09:25:03;;;;;;;33.37;10.53;;;;;;;3.07;100.00;99094.72;5009137;28;20034;-68
2020/12/05 09:27:42;;;;;;;31.37;11.53;;;;;;;3.13;100.00;99107.66;5006100;28;20057;-67
2020/12/05 09:30:13;;;;;;;34.43;12.00;;;;;;;3.20;100.00;99112.00;5008508;28;20383;-68
2020/12/05 09:32:40;;;;;;;29.63;11.10;;;;;;;3.28;100.00;99128.41;5010686;28;20417;-68
2020/12/05 09:35:07;;;;;;;33.67;11.67;;;;;;;3.37;100.00;99120.69;5008475;28;20276;-67
2020/12/05 09:37:32;;;;;;;30.37;10.50;;;;;;;3.41;100.00;99124.19;5007038;28;20303;-68
2020/12/05 09:39:57;;;;;;;27.17;11.70;;;;;;;3.49;100.00;99123.31;5009027;28;20285;-68
2020/12/05 09:42:23;;;;;;;30.87;9.90;;;;;;;3.52;100.00;99125.94;5004794;28;20038;-68
2020/12/05 09:44:50;;;;;;;28.53;10.10;;;;;;;3.56;100.00;99131.13;5007663;28;20069;-68
2020/12/05 09:47:15;;;;;;;24.80;10.70;;;;;;;3.56;100.00;99144.03;5039456;28;20280;-69
2020/12/05 09:49:40;;;;;;;32.20;10.87;;;;;;;3.60;100.00;99140.59;5009480;28;20289;-67
2020/12/05 09:52:06;;;;;;;30.67;11.23;;;;;;;3.64;100.00;99148.41;5007671;28;20054;-68
2020/12/05 09:54:31;;;;;;;30.63;10.93;;;;;;;3.61;100.00;99126.81;5008174;28;20583;-67
2020/12/05 09:56:57;;;;;;;34.07;11.60;;;;;;;3.68;100.00;99128.59;5010008;28;20116;-66
2020/12/05 09:59:22;;;;;;;31.93;11.17;;;;;;;3.63;100.00;99135.44;5007747;28;20113;-67
2020/12/05 10:01:47;;;;;;;25.73;10.37;;;;;;;3.64;100.00;99142.38;5005530;28;20396;-67
2020/12/05 10:04:15;;;;;;;28.93;10.07;;;;;;;3.65;100.00;99144.09;5005266;28;20030;-66
2020/12/05 10:06:41;;;;;;;24.70;9.13;;;;;;;3.70;100.00;99137.19;5004981;28;20061;-68
2020/12/05 10:09:06;;;;;;;22.23;8.70;;;;;;;3.80;100.00;99133.78;5000125;28;20395;-68
2020/12/05 10:11:32;;;;;;;30.30;11.20;;;;;;;3.93;100.00;99130.38;5006241;28;20500;-67
2020/12/05 10:13:57;;;;;;;26.70;10.07;;;;;;;4.16;100.00;99116.63;5002679;28;20112;-66
2020/12/05 10:16:22;;;;;;;27.37;10.37;;;;;;;4.37;100.00;99116.66;5008433;28;20030;-67
2020/12/05 10:18:48;;;;;;;29.67;10.37;;;;;;;4.59;100.00;99112.34;5008508;28;20034;-67
2020/12/05 10:21:13;;;;;;;29.27;10.33;;;;;;;4.90;100.00;99114.03;5007992;28;20820;-67
2020/12/05 10:23:39;;;;;;;21.60;9.10;;;;;;;4.91;100.00;99108.00;5007909;28;20038;-67
2020/12/05 10:26:06;;;;;;;23.20;9.33;;;;;;;4.90;100.00;99120.97;5008641;28;20057;-67
2020/12/05 10:28:32;;;;;;;26.87;9.60;;;;;;;4.88;100.00;99135.63;5009627;28;20040;-67
2020/12/05 10:30:57;;;;;;;25.30;9.73;;;;;;;4.88;100.00;99140.81;5010211;28;20288;-67
2020/12/05 10:33:22;;;;;;;26.83;10.00;;;;;;;4.84;100.00;99157.19;5005469;28;20061;-67
2020/12/05 10:35:48;;;;;;;22.10;9.43;;;;;;;4.76;100.00;99164.13;5006089;28;20377;-68
2020/12/05 10:38:13;;;;;;;31.33;10.97;;;;;;;4.98;100.00;99169.31;5002236;28;20337;-66
2020/12/05 10:40:39;;;;;;;33.60;11.67;;;;;;;5.02;100.00;99159.78;5007734;28;20115;-67
2020/12/05 10:43:05;;;;;;;26.97;10.43;;;;;;;5.08;100.00;99166.66;5007493;28;20034;-67
2020/12/05 10:45:31;;;;;;;21.93;8.97;;;;;;;5.06;100.00;99148.53;5008358;28;20030;-68
2020/12/05 10:47:56;;;;;;;25.53;10.00;;;;;;;5.25;100.00;99142.47;5005586;28;20917;-66
2020/12/05 10:50:22;;;;;;;30.90;10.23;;;;;;;5.30;100.00;99135.53;5006005;28;20034;-68
2020/12/05 10:52:47;;;;;;;30.60;11.83;;;;;;;5.42;100.00;99136.38;5006297;28;20470;-67
2020/12/05 10:55:12;;;;;;;27.53;10.57;;;;;;;5.40;100.00;99135.53;5005091;28;20707;-67
2020/12/05 10:57:38;;;;;;;28.77;10.23;;;;;;;5.35;100.00;99158.00;5006331;28;20030;-67
2020/12/05 11:00:03;;;;;;;28.30;11.30;;;;;;;5.46;100.00;99179.59;5009610;28;20504;-67
2020/12/05 11:02:29;;;;;;;25.63;10.00;;;;;;;5.52;100.00;99185.59;5003817;28;20461;-66
2020/12/05 11:04:54;;;;;;;32.37;13.27;;;;;;;5.57;100.00;99173.50;5005395;28;20408;-66
2020/12/05 11:07:19;;;;;;;26.50;11.50;;;;;;;5.44;100.00;99153.63;5006924;28;20041;-67
2020/12/05 11:09:45;;;;;;;34.13;11.13;;;;;;;5.38;100.00;99152.81;5005335;28;20076;-66
2020/12/05 11:12:10;;;;;;;29.07;11.00;;;;;;;5.39;100.00;99146.75;5005369;28;20032;-68
2020/12/05 11:14:35;;;;;;;30.10;10.73;;;;;;;5.44;100.00;99147.59;5006103;28;20065;-67
2020/12/05 11:17:01;;;;;;;34.50;13.03;;;;;;;5.49;100.00;99130.31;5006744;28;20080;-68
2020/12/05 11:19:27;;;;;;;30.10;12.37;;;;;;;5.53;100.00;99138.06;5007020;28;20037;-69
2020/12/05 11:21:52;;;;;;;32.33;12.10;;;;;;;5.68;100.00;99131.09;5007715;28;20025;-66
2020/12/05 11:24:17;;;;;;;32.33;12.47;;;;;;;5.73;100.00;99143.19;5005931;28;20038;-67